Bulgan, Mongolia
Current Conditions -  °F | °C
As of 2:30 PM on Saturday 20 Dec 2014 (Local Time) from ZMUB Reporting Station
Broken Clouds Broken Clouds  
Wind Chill:   Ceiling: 25000
Heat Index:   Visibility: 6mi
Dew Point: -9°   Wind: 2mph
Humidity: 61%   Direction: NA
Pressure: 30.33"   Gusts: NA
Location:  48.82°N, 103.56°E
Report Text: ZMUB 200630Z VRB01MPS 9999 BKN250 M17/M23 Q1027 NOSIG RMK QFE661.8 55 MOP
Loading
Personal Weather Stations






























Interactive Weather Map New forecast layout! Learn more

10-Day Weather Forecast

Advertisements
Track Severe Weather on mobile